Galway, Ireland

3:34 AM IST on August 29, 2016 (GMT +0100)
Marine Institute | | Change Station

Elev 59 ft 53.25 °N, 8.98 °W | Updated 4 minutes ago

Fog
Fog
52.4 °F
Feels Like 52.4 °F
N
3.0
Wind Variable Wind from ESE
Gusts 3.0 mph

Today
High -- | Low -- °F
--% Chance of Precip.
Yesterday
High -- | Low -- °F
Precip. -- in
Pressure 30.15 in
Visibility 0.9 miles
Clouds Scattered Clouds 100 ft
Mostly Cloudy 400 ft
Dew Point 48 °F
Humidity 86%
Rainfall 0.00 in
Snow Depth Not available.
6:41 AM 8:31 PM
Waning Crescent, 11% visible
METAR EINN 290230Z 25004KT 1500 MIFG SCT001 BKN004 13/13 Q1021 TEMPO 0400 BKN002
Pressure 30.15 in
Visibility 0.9 miles
Clouds Scattered Clouds 100 ft
Mostly Cloudy 400 ft
Dew Point 48 °F
Humidity 86%
Rainfall 0.00 in
Snow Depth Not available.
6:41 AM 8:31 PM
Waning Crescent, 11% visible
METAR EINN 290230Z 25004KT 1500 MIFG SCT001 BKN004 13/13 Q1021 TEMPO 0400 BKN002

10-Day Weather Forecast

×

Almanac

Astronomy

Aug. 29, 2016 Rise Set
Actual Time
Civil Twilight
Nautical Twilight
Astronomical Twilight
Moon
Length of Visible Light
Length of Day
Tomorrow will be .
, % of the Moon is Illuminated

Today's Extremes

Country Highs Country Lows

Community

WunderPhotos

Upload Photos

1,935,772 photos uploaded!

WunderBlog® & News

Nearby

Air Quality

  Air Quality AQ Index Pollutant
Not available.

Snow Depth

Station Depth Elevation

Earthquake Activity

City Distance Mag. Time & Date
Minimum magnitude displayed is 2.5.

Coastal Water Temperatures

Place Temperature

Stations

Nearby Weather Stations

Station Location Temp. Windchill Dew Point Humidity Wind Precip. Elev Updated Type